Time;durP1;ratioP1;P1;durP2;ratioP2;P2;SDS_P1;SDS_P2;PMS_P1;PMS_P2;Temp;Humidity;BMP_temperature;BMP_pressure;BME280_temperature;BME280_humidity;BME280_pressure;Samples;Min_cycle;Max_cycle;Signal;HPM_P1;HPM_P2
2023/11/16 00:01:25;;;;;;;12.83;3.40;;;;;;;7.30;100.00;100351.72;7368145;19;20430;-46
2023/11/16 00:03:58;;;;;;;10.73;4.90;;;;;;;7.30;100.00;100345.72;7389264;19;20383;-46
2023/11/16 00:06:27;;;;;;;9.10;4.07;;;;;;;7.29;100.00;100354.22;7369695;19;20478;-46
2023/11/16 00:08:57;;;;;;;12.03;3.70;;;;;;;7.31;100.00;100362.88;7393485;19;20386;-47
2023/11/16 00:11:29;;;;;;;15.60;6.00;;;;;;;7.33;100.00;100350.13;7372425;19;20426;-51
2023/11/16 00:13:59;;;;;;;10.20;3.97;;;;;;;7.36;100.00;100361.41;7400819;19;20396;-47
2023/11/16 00:16:28;;;;;;;7.90;3.00;;;;;;;7.39;100.00;100358.97;7371276;19;20845;-48
2023/11/16 00:19:02;;;;;;;5.00;2.63;;;;;;;7.41;100.00;100354.81;7397312;19;20399;-48
2023/11/16 00:21:32;;;;;;;6.23;3.23;;;;;;;7.43;100.00;100354.88;7374747;19;20854;-50
2023/11/16 00:24:05;;;;;;;12.03;3.60;;;;;;;7.42;100.00;100351.44;7394090;19;20835;-50
2023/11/16 00:26:36;;;;;;;25.33;9.70;;;;;;;7.45;100.00;100343.00;7371497;19;20403;-48
2023/11/16 00:29:06;;;;;;;8.07;3.73;;;;;;;7.46;100.00;100344.78;7393154;19;20380;-47
2023/11/16 00:31:36;;;;;;;9.90;5.10;;;;;;;7.47;100.00;100343.97;7372253;19;20423;-52
2023/11/16 00:34:08;;;;;;;11.67;3.73;;;;;;;7.47;100.00;100335.38;7397482;19;20419;-50
2023/11/16 00:36:40;;;;;;;8.60;3.77;;;;;;;7.47;100.00;100327.66;7370638;19;20411;-47
2023/11/16 00:39:10;;;;;;;12.77;3.53;;;;;;;7.50;100.00;100317.56;7392826;19;20956;-50
2023/11/16 00:41:40;;;;;;;8.20;3.90;;;;;;;7.49;100.00;100310.66;7372598;19;20430;-52
2023/11/16 00:44:12;;;;;;;10.97;3.27;;;;;;;7.49;100.00;100301.25;7395426;19;20483;-46
2023/11/16 00:46:43;;;;;;;16.20;4.70;;;;;;;7.49;100.00;100300.41;7373943;19;20427;-51
2023/11/16 00:49:15;;;;;;;7.60;3.10;;;;;;;7.49;100.00;100306.41;7396751;19;20403;-51
2023/11/16 00:51:45;;;;;;;8.20;2.77;;;;;;;7.51;100.00;100293.63;7372584;19;20876;-52
2023/11/16 00:54:14;;;;;;;5.77;2.73;;;;;;;7.54;100.00;100298.94;7399519;19;20416;-50
2023/11/16 00:56:45;;;;;;;7.90;3.53;;;;;;;7.55;100.00;100280.16;7370842;19;20447;-48
2023/11/16 00:59:15;;;;;;;4.03;2.50;;;;;;;7.56;100.00;100282.78;7398685;19;20388;-50
2023/11/16 01:01:45;;;;;;;4.70;2.73;;;;;;;7.58;100.00;100275.13;7370629;19;20895;-48
2023/11/16 01:04:19;;;;;;;10.33;2.73;;;;;;;7.52;100.00;100274.84;7392778;19;20407;-47
2023/11/16 01:06:48;;;;;;;6.97;3.10;;;;;;;7.51;100.00;100278.25;7367640;19;20771;-47
2023/11/16 01:09:19;;;;;;;8.43;2.60;;;;;;;7.43;100.00;100276.19;7391999;19;20416;-46
2023/11/16 01:11:48;;;;;;;7.20;2.87;;;;;;;7.42;100.00;100284.72;7370084;19;20399;-47
2023/11/16 01:14:18;;;;;;;9.03;2.93;;;;;;;7.39;100.00;100288.81;7394135;19;20482;-49
2023/11/16 01:16:53;;;;;;;13.20;3.10;;;;;;;7.43;100.00;100303.53;7370547;19;20430;-51
2023/11/16 01:19:26;;;;;;;9.17;3.17;;;;;;;7.42;100.00;100294.97;7398829;19;20435;-47
2023/11/16 01:21:59;;;;;;;7.53;3.30;;;;;;;7.45;100.00;100283.09;7372835;19;20530;-48
2023/11/16 01:24:34;;;;;;;11.03;2.80;;;;;;;7.47;100.00;100281.47;7393066;19;20397;-46
2023/11/16 01:27:15;;;;;;;3.77;1.40;;;;;;;7.49;100.00;100278.16;7373332;19;20997;-46
2023/11/16 01:29:45;;;;;;;15.33;4.23;;;;;;;7.49;100.00;100274.72;7395786;19;20404;-47
2023/11/16 01:32:17;;;;;;;10.83;3.10;;;;;;;7.50;100.00;100258.50;7370811;19;20399;-48
2023/11/16 01:34:49;;;;;;;7.03;2.00;;;;;;;7.52;100.00;100259.44;7395825;19;20391;-47
2023/11/16 01:37:19;;;;;;;4.63;2.10;;;;;;;7.54;100.00;100248.44;7368584;19;20419;-46
2023/11/16 01:39:49;;;;;;;4.67;2.17;;;;;;;7.53;100.00;100236.44;7396365;19;20395;-49
2023/11/16 01:42:18;;;;;;;5.20;1.90;;;;;;;7.45;100.00;100258.31;7369924;19;20765;-47
2023/11/16 01:44:48;;;;;;;3.10;0.83;;;;;;;7.34;100.00;100255.22;7392034;19;20963;-46
2023/11/16 01:47:18;;;;;;;4.33;0.80;;;;;;;7.26;100.00;100266.81;7370345;19;20498;-48
2023/11/16 01:49:50;;;;;;;10.17;2.63;;;;;;;7.23;100.00;100261.56;7393276;19;20408;-48
2023/11/16 01:52:20;;;;;;;7.83;2.67;;;;;;;7.25;100.00;100265.06;7369196;19;20490;-47
2023/11/16 01:54:49;;;;;;;6.30;1.80;;;;;;;7.24;100.00;100273.56;7394043;19;20388;-46
2023/11/16 01:57:19;;;;;;;5.43;1.33;;;;;;;7.18;100.00;100268.16;7368066;19;20526;-49
2023/11/16 01:59:49;;;;;;;6.60;1.90;;;;;;;7.12;100.00;100267.03;7390989;19;20396;-48
2023/11/16 02:02:18;;;;;;;11.33;3.10;;;;;;;7.08;100.00;100271.97;7365490;19;20450;-46
2023/11/16 02:04:51;;;;;;;8.30;2.40;;;;;;;7.02;100.00;100282.78;7390822;19;20530;-40
2023/11/16 02:07:20;;;;;;;3.57;1.20;;;;;;;7.01;100.00;100275.91;7368751;19;20476;-38
2023/11/16 02:09:50;;;;;;;9.83;1.63;;;;;;;6.98;100.00;100281.75;7393229;19;20474;-40
2023/11/16 02:12:20;;;;;;;8.60;1.37;;;;;;;6.98;100.00;100286.03;7371699;19;21202;-40
2023/11/16 02:14:50;;;;;;;4.60;1.50;;;;;;;6.99;100.00;100283.50;7395301;19;21014;-40
2023/11/16 02:17:21;;;;;;;3.87;1.47;;;;;;;6.95;100.00;100289.31;7370103;19;20520;-40
2023/11/16 02:19:55;;;;;;;11.97;2.47;;;;;;;6.97;100.00;100281.72;7393433;19;20408;-41
2023/11/16 02:22:26;;;;;;;9.57;2.00;;;;;;;6.97;100.00;100289.41;7372188;19;20514;-39
2023/11/16 02:24:58;;;;;;;1.60;0.80;;;;;;;6.97;100.00;100285.13;7394763;19;20454;-41
2023/11/16 02:27:29;;;;;;;4.33;1.37;;;;;;;7.02;100.00;100278.53;7369694;19;20439;-41
2023/11/16 02:29:59;;;;;;;2.30;0.70;;;;;;;7.06;100.00;100268.41;7394236;19;20407;-41
2023/11/16 02:32:28;;;;;;;4.73;1.33;;;;;;;7.05;100.00;100262.44;7370547;19;20959;-40
2023/11/16 02:34:58;;;;;;;3.40;1.00;;;;;;;7.03;100.00;100241.81;7394301;19;20468;-42
2023/11/16 02:37:27;;;;;;;10.20;1.77;;;;;;;7.01;100.00;100240.00;7369835;19;20962;-42
2023/11/16 02:40:00;;;;;;;3.37;1.23;;;;;;;6.97;100.00;100249.22;7393553;19;20483;-41
2023/11/16 02:42:30;;;;;;;3.27;0.90;;;;;;;6.83;100.00;100243.41;7371069;19;20500;-41
2023/11/16 02:45:00;;;;;;;8.53;1.23;;;;;;;6.77;100.00;100275.59;7394670;19;20466;-42
2023/11/16 02:47:30;;;;;;;6.40;1.37;;;;;;;6.72;100.00;100289.06;7370279;19;20431;-39
2023/11/16 02:50:00;;;;;;;3.83;1.47;;;;;;;6.70;100.00;100305.16;7393774;19;20408;-38
2023/11/16 02:52:30;;;;;;;8.97;1.10;;;;;;;6.70;100.00;100323.09;7370707;19;20434;-40
2023/11/16 02:55:02;;;;;;;6.57;1.77;;;;;;;6.68;100.00;100347.78;7393762;19;20451;-39
2023/11/16 02:57:32;;;;;;;10.50;1.20;;;;;;;6.67;100.00;100372.53;7370570;19;20865;-41
2023/11/16 03:00:02;;;;;;;3.30;0.90;;;;;;;6.65;100.00;100391.25;7387286;19;20450;-41
2023/11/16 03:02:32;;;;;;;2.60;0.63;;;;;;;6.61;100.00;100398.75;7370304;19;20435;-42
2023/11/16 03:05:06;;;;;;;2.43;0.67;;;;;;;6.64;100.00;100403.16;7393244;19;20474;-41
2023/11/16 03:07:36;;;;;;;4.37;1.10;;;;;;;6.63;100.00;100432.16;7370169;19;20859;-40
2023/11/16 03:10:11;;;;;;;4.70;1.10;;;;;;;6.62;100.00;100441.53;7394090;19;20413;-40
2023/11/16 03:12:41;;;;;;;8.63;0.80;;;;;;;6.55;100.00;100484.69;7371389;19;20813;-40
2023/11/16 03:15:12;;;;;;;3.90;1.50;;;;;;;6.53;100.00;100528.22;7378687;19;20456;-39
2023/11/16 03:17:43;;;;;;;4.53;1.40;;;;;;;6.42;100.00;100595.94;7392568;19;20430;-42
2023/11/16 03:20:15;;;;;;;9.17;2.50;;;;;;;6.31;100.00;100644.91;7370192;19;20403;-41
2023/11/16 03:22:44;;;;;;;8.03;1.73;;;;;;;6.34;100.00;100685.19;7390844;19;20487;-43
2023/11/16 03:25:17;;;;;;;4.13;2.13;;;;;;;6.26;100.00;100715.50;7371160;19;20790;-40
2023/11/16 03:27:46;;;;;;;14.50;4.30;;;;;;;6.28;100.00;100725.84;7391051;19;20491;-41
2023/11/16 03:30:17;;;;;;;4.10;1.40;;;;;;;6.25;100.00;100735.94;7368312;19;20955;-41
2023/11/16 03:32:47;;;;;;;4.50;1.50;;;;;;;6.13;100.00;100743.75;7390965;19;20420;-41
2023/11/16 03:35:17;;;;;;;2.97;1.63;;;;;;;6.08;100.00;100734.13;7369111;19;20985;-41
2023/11/16 03:37:47;;;;;;;3.53;1.63;;;;;;;6.04;100.00;100721.91;7390721;19;20415;-41
2023/11/16 03:40:20;;;;;;;4.53;1.73;;;;;;;5.89;100.00;100711.59;7374140;19;20411;-40
2023/11/16 03:42:49;;;;;;;9.13;3.30;;;;;;;5.73;100.00;100706.34;7396989;19;20428;-40
2023/11/16 03:45:19;;;;;;;3.70;1.83;;;;;;;5.58;100.00;100665.38;7375661;19;20454;-41
2023/11/16 03:47:49;;;;;;;2.37;0.80;;;;;;;5.42;100.00;100605.56;7397180;19;20431;-40
2023/11/16 03:50:19;;;;;;;2.27;0.80;;;;;;;5.42;100.00;100564.63;7376031;19;20435;-40
2023/11/16 03:52:49;;;;;;;2.00;0.73;;;;;;;5.28;100.00;100502.38;7397104;19;20486;-42
2023/11/16 03:55:21;;;;;;;12.20;1.27;;;;;;;5.26;100.00;100440.91;7375682;19;20439;-42
2023/11/16 03:57:50;;;;;;;2.63;0.70;;;;;;;5.24;100.00;100410.94;7396512;19;20487;-41
2023/11/16 04:00:24;;;;;;;8.00;2.37;;;;;;;5.22;100.00;100397.16;7377740;19;20410;-40
2023/11/16 04:02:54;;;;;;;3.70;1.07;;;;;;;5.17;100.00;100373.00;7398087;19;20419;-40
2023/11/16 04:05:24;;;;;;;5.50;1.20;;;;;;;5.13;100.00;100377.06;7373105;19;20798;-40
2023/11/16 04:07:53;;;;;;;5.83;1.83;;;;;;;5.07;100.00;100372.44;7396333;19;20418;-40
2023/11/16 04:10:26;;;;;;;2.10;0.73;;;;;;;5.02;100.00;100367.88;7377023;19;20490;-41
2023/11/16 04:12:55;;;;;;;2.60;1.10;;;;;;;5.02;100.00;100373.00;7398505;19;20474;-41
2023/11/16 04:15:26;;;;;;;3.60;1.00;;;;;;;4.93;100.00;100373.34;7376466;19;20502;-43
2023/11/16 04:17:56;;;;;;;4.07;1.17;;;;;;;4.81;100.00;100369.25;7397832;19;20399;-43
2023/11/16 04:20:28;;;;;;;2.07;0.70;;;;;;;4.79;100.00;100360.63;7374791;19;20793;-41
2023/11/16 04:22:57;;;;;;;3.83;1.43;;;;;;;4.78;100.00;100363.09;7397636;19;20399;-41
2023/11/16 04:25:33;;;;;;;2.83;1.03;;;;;;;4.75;100.00;100352.66;7376556;19;20439;-41
2023/11/16 04:28:05;;;;;;;1.90;0.70;;;;;;;4.72;100.00;100364.50;7398182;19;20422;-41
2023/11/16 04:30:35;;;;;;;2.80;0.70;;;;;;;4.68;100.00;100377.00;7374163;19;20415;-40
2023/11/16 04:33:04;;;;;;;2.43;0.83;;;;;;;4.72;100.00;100364.50;7397357;19;20430;-40
2023/11/16 04:35:34;;;;;;;1.70;0.70;;;;;;;4.70;100.00;100368.63;7374291;19;20450;-41
2023/11/16 04:38:04;;;;;;;3.93;1.13;;;;;;;4.71;100.00;100375.50;7396782;19;20420;-40
2023/11/16 04:40:36;;;;;;;2.43;1.30;;;;;;;4.70;100.00;100386.53;7373498;19;20405;-41
2023/11/16 04:43:06;;;;;;;3.53;1.90;;;;;;;4.69;100.00;100394.09;7396822;19;20411;-41
2023/11/16 04:45:35;;;;;;;2.27;1.00;;;;;;;4.67;100.00;100380.34;7373492;19;20447;-41
2023/11/16 04:48:05;;;;;;;8.27;2.53;;;;;;;4.62;100.00;100392.88;7398721;19;20427;-38
2023/11/16 04:50:35;;;;;;;1.73;0.90;;;;;;;4.62;100.00;100400.53;7370942;19;20445;-40
2023/11/16 04:53:05;;;;;;;11.47;3.67;;;;;;;4.64;100.00;100404.06;7395800;19;20518;-38
2023/11/16 04:55:37;;;;;;;4.37;1.07;;;;;;;4.62;100.00;100408.19;7372485;19;21194;-38
2023/11/16 04:58:07;;;;;;;6.30;2.27;;;;;;;4.56;100.00;100412.94;7395970;19;20431;-40
2023/11/16 05:00:37;;;;;;;5.00;1.27;;;;;;;4.51;100.00;100430.53;7372327;19;20402;-42
2023/11/16 05:03:06;;;;;;;4.87;2.40;;;;;;;4.53;100.00;100426.41;7395697;19;20423;-38
2023/11/16 05:05:39;;;;;;;10.27;4.47;;;;;;;4.54;100.00;100422.16;7370457;19;20412;-41
2023/11/16 05:08:09;;;;;;;11.93;4.30;;;;;;;4.52;100.00;100427.16;7395686;19;20420;-39
2023/11/16 05:10:42;;;;;;;3.27;1.73;;;;;;;4.48;100.00;100434.56;7371593;19;20475;-39
2023/11/16 05:13:11;;;;;;;5.90;2.03;;;;;;;4.33;100.00;100417.50;7395363;19;20769;-40
2023/11/16 05:15:44;;;;;;;3.83;1.80;;;;;;;4.31;100.00;100431.88;7372446;19;20408;-39
2023/11/16 05:18:15;;;;;;;3.33;1.60;;;;;;;4.32;100.00;100431.94;7396736;19;20499;-39
2023/11/16 05:20:46;;;;;;;3.83;1.80;;;;;;;4.19;100.00;100447.31;7371671;19;20395;-39
2023/11/16 05:23:16;;;;;;;3.73;1.67;;;;;;;4.19;100.00;100465.19;7395474;19;20404;-40
2023/11/16 05:25:49;;;;;;;4.03;1.80;;;;;;;4.14;100.00;100462.34;7371729;19;20979;-39
2023/11/16 05:28:19;;;;;;;3.40;2.00;;;;;;;4.04;100.00;100481.31;7395200;19;20430;-38
2023/11/16 05:30:50;;;;;;;3.97;2.20;;;;;;;4.03;100.00;100483.75;7373322;19;20782;-39
2023/11/16 05:33:22;;;;;;;6.73;3.00;;;;;;;4.00;100.00;100483.56;7395539;19;20404;-38
2023/11/16 05:35:54;;;;;;;5.77;2.77;;;;;;;3.94;100.00;100495.94;7371184;19;20490;-39
2023/11/16 05:38:26;;;;;;;4.00;2.20;;;;;;;3.89;100.00;100488.84;7394841;19;20415;-38
2023/11/16 05:40:58;;;;;;;4.60;2.50;;;;;;;3.81;100.00;100500.25;7371442;19;20491;-38
2023/11/16 05:43:28;;;;;;;5.00;2.67;;;;;;;3.83;100.00;100493.56;7396057;19;20412;-40
2023/11/16 05:45:58;;;;;;;4.50;2.73;;;;;;;3.83;100.00;100503.78;7371632;19;20403;-39
2023/11/16 05:48:28;;;;;;;3.47;2.07;;;;;;;3.81;100.00;100504.47;7394773;19;20427;-41
2023/11/16 05:50:58;;;;;;;4.33;2.33;;;;;;;3.83;100.00;100497.78;7371624;19;20395;-39
2023/11/16 05:53:27;;;;;;;6.43;3.20;;;;;;;3.85;100.00;100497.09;7395571;19;20436;-39
2023/11/16 05:56:00;;;;;;;3.43;2.07;;;;;;;3.82;100.00;100496.91;7371573;19;20403;-41
2023/11/16 05:58:29;;;;;;;3.10;1.93;;;;;;;3.73;100.00;100496.28;7394659;19;20399;-39
2023/11/16 06:00:59;;;;;;;5.53;2.93;;;;;;;3.75;100.00;100499.84;7371116;19;21027;-39
2023/11/16 06:03:30;;;;;;;5.03;2.90;;;;;;;3.73;100.00;100511.59;7391910;19;20404;-39
2023/11/16 06:06:00;;;;;;;3.40;2.47;;;;;;;3.70;100.00;100502.09;7368602;19;20427;-38
2023/11/16 06:08:30;;;;;;;3.57;2.67;;;;;;;3.69;100.00;100509.66;7394438;19;20400;-39
2023/11/16 06:11:02;;;;;;;4.80;2.90;;;;;;;3.63;100.00;100518.69;7370231;19;20923;-39
2023/11/16 06:13:34;;;;;;;3.13;2.20;;;;;;;3.56;100.00;100508.84;7394671;19;20412;-39
2023/11/16 06:16:05;;;;;;;3.47;2.30;;;;;;;3.55;100.00;100531.69;7370425;19;20407;-41
2023/11/16 06:18:35;;;;;;;3.03;1.90;;;;;;;3.53;100.00;100534.16;7393526;19;20411;-38
2023/11/16 06:21:05;;;;;;;4.90;2.67;;;;;;;3.54;100.00;100530.81;7372319;19;20514;-39
2023/11/16 06:23:36;;;;;;;4.53;2.53;;;;;;;3.53;100.00;100544.34;7393406;19;20834;-38
2023/11/16 06:26:09;;;;;;;3.97;2.23;;;;;;;3.46;100.00;100543.06;7370534;19;20458;-39
2023/11/16 06:28:38;;;;;;;3.00;1.60;;;;;;;3.52;100.00;100537.47;7392666;19;20415;-38
2023/11/16 06:31:08;;;;;;;5.77;2.73;;;;;;;3.42;100.00;100565.69;7370137;19;20399;-40
2023/11/16 06:33:38;;;;;;;5.70;2.60;;;;;;;3.43;100.00;100564.94;7393101;19;20428;-39
2023/11/16 06:36:08;;;;;;;4.70;1.53;;;;;;;3.44;100.00;100553.94;7369906;19;20403;-39
2023/11/16 06:38:38;;;;;;;7.33;2.40;;;;;;;3.46;100.00;100583.00;7394629;19;20418;-39
2023/11/16 06:41:12;;;;;;;3.00;1.43;;;;;;;3.44;100.00;100589.66;7369625;19;20419;-39
2023/11/16 06:43:42;;;;;;;4.97;2.17;;;;;;;3.41;100.00;100597.09;7393279;19;20432;-39
2023/11/16 06:46:12;;;;;;;4.43;1.97;;;;;;;3.40;100.00;100602.97;7370628;19;20817;-40
2023/11/16 06:48:42;;;;;;;14.63;6.17;;;;;;;3.56;100.00;100605.81;7393887;19;20414;-40
2023/11/16 06:51:13;;;;;;;4.77;2.43;;;;;;;3.62;100.00;100608.78;7369129;19;20410;-42
2023/11/16 06:53:43;;;;;;;10.10;3.13;;;;;;;3.61;100.00;100607.00;7393349;19;20428;-40
2023/11/16 06:56:15;;;;;;;17.17;7.23;;;;;;;3.57;100.00;100611.78;7370328;19;20423;-40
2023/11/16 06:58:45;;;;;;;12.60;4.07;;;;;;;3.60;100.00;100609.44;7391980;19;20407;-41
2023/11/16 07:01:15;;;;;;;14.80;5.70;;;;;;;3.57;100.00;100601.56;7369137;19;21237;-40
2023/11/16 07:03:46;;;;;;;7.10;2.30;;;;;;;3.50;100.00;100613.03;7392135;19;20392;-39
2023/11/16 07:06:18;;;;;;;12.87;5.73;;;;;;;3.98;100.00;100612.78;7367936;19;20427;-40
2023/11/16 07:08:50;;;;;;;10.20;4.90;;;;;;;4.14;100.00;100623.22;7393417;19;20756;-39
2023/11/16 07:11:22;;;;;;;5.17;2.77;;;;;;;3.84;100.00;100617.00;7369156;19;20403;-39
2023/11/16 07:13:52;;;;;;;3.47;1.70;;;;;;;3.83;100.00;100616.09;7391217;19;20474;-40
2023/11/16 07:16:22;;;;;;;7.73;2.80;;;;;;;3.77;100.00;100625.88;7368758;19;20780;-39
2023/11/16 07:18:52;;;;;;;25.57;9.30;;;;;;;4.19;100.00;100629.53;7391609;19;20408;-41
2023/11/16 07:21:22;;;;;;;12.20;6.17;;;;;;;4.27;100.00;100644.47;7369042;19;20399;-40
2023/11/16 07:23:54;;;;;;;3.27;1.10;;;;;;;3.86;100.00;100657.16;7393689;19;20961;-39
2023/11/16 07:26:27;;;;;;;4.17;2.27;;;;;;;3.67;100.00;100651.56;7369622;19;20395;-39
2023/11/16 07:28:56;;;;;;;5.43;1.40;;;;;;;3.76;100.00;100659.84;7393587;19;20411;-40
2023/11/16 07:31:28;;;;;;;3.37;1.40;;;;;;;4.02;100.00;100665.81;7368610;19;21002;-40
2023/11/16 07:34:01;;;;;;;3.37;1.50;;;;;;;3.71;100.00;100668.84;7391218;19;20777;-39
2023/11/16 07:36:31;;;;;;;3.80;1.77;;;;;;;3.76;100.00;100664.97;7369065;19;20415;-41
2023/11/16 07:39:02;;;;;;;2.93;1.30;;;;;;;3.73;100.00;100673.28;7391449;19;20407;-39
2023/11/16 07:41:35;;;;;;;2.63;1.37;;;;;;;3.63;100.00;100676.88;7367023;19;20427;-39
2023/11/16 07:44:05;;;;;;;4.50;1.80;;;;;;;3.60;100.00;100671.56;7392185;19;20426;-39
2023/11/16 07:46:36;;;;;;;7.93;3.53;;;;;;;3.60;100.00;100675.78;7367050;19;20483;-40
2023/11/16 07:49:05;;;;;;;3.10;1.50;;;;;;;3.50;100.00;100681.94;7387969;19;20955;-41
2023/11/16 07:51:35;;;;;;;2.23;1.10;;;;;;;3.52;100.00;100685.47;7366755;19;20443;-40
2023/11/16 07:54:05;;;;;;;2.57;1.10;;;;;;;3.45;100.00;100683.25;7391845;19;20862;-39
2023/11/16 07:56:38;;;;;;;6.57;2.10;;;;;;;3.45;100.00;100694.38;7367326;19;20470;-39
2023/11/16 07:59:14;;;;;;;2.97;1.10;;;;;;;3.41;100.00;100694.94;7390984;19;20407;-42
2023/11/16 08:01:50;;;;;;;2.87;1.13;;;;;;;3.40;100.00;100694.81;7365608;19;20423;-40
2023/11/16 08:04:18;;;;;;;3.30;1.37;;;;;;;3.44;100.00;100697.66;7391469;19;20466;-38
2023/11/16 08:06:48;;;;;;;2.73;1.20;;;;;;;3.45;100.00;100703.66;7365146;19;20431;-39
2023/11/16 08:09:19;;;;;;;2.83;1.27;;;;;;;3.44;100.00;100704.47;7390613;19;20443;-39
2023/11/16 08:11:54;;;;;;;6.33;2.30;;;;;;;3.52;100.00;100708.41;7366456;19;20494;-39
2023/11/16 08:14:25;;;;;;;2.73;1.20;;;;;;;3.58;100.00;100698.63;7390791;19;20506;-39
2023/11/16 08:16:58;;;;;;;7.10;2.80;;;;;;;3.63;100.00;100712.59;7364083;19;20443;-39
2023/11/16 08:19:31;;;;;;;5.57;2.43;;;;;;;3.58;100.00;100701.19;7385631;19;20415;-39
2023/11/16 08:22:01;;;;;;;2.83;1.53;;;;;;;3.62;100.00;100708.28;7365446;19;20829;-40
2023/11/16 08:24:31;;;;;;;4.40;1.97;;;;;;;3.67;100.00;100706.03;7390691;19;20460;-41
2023/11/16 08:27:03;;;;;;;2.77;1.27;;;;;;;3.67;100.00;100707.69;7371572;19;20428;-40
2023/11/16 08:29:33;;;;;;;9.73;3.90;;;;;;;3.72;100.00;100698.69;7395074;19;20411;-39
2023/11/16 08:32:04;;;;;;;10.40;3.80;;;;;;;3.75;100.00;100699.78;7376528;19;20425;-40
2023/11/16 08:34:34;;;;;;;3.00;1.47;;;;;;;3.78;100.00;100704.22;7399029;19;20802;-39
2023/11/16 08:37:03;;;;;;;6.13;1.57;;;;;;;3.83;100.00;100707.97;7375291;19;20418;-40
2023/11/16 08:39:33;;;;;;;5.13;1.30;;;;;;;3.80;100.00;100712.91;7400011;19;20404;-39
2023/11/16 08:42:06;;;;;;;4.77;1.50;;;;;;;3.81;100.00;100709.56;7371733;19;20971;-39
2023/11/16 08:44:37;;;;;;;18.00;6.73;;;;;;;3.83;100.00;100712.19;7396777;19;20447;-39
2023/11/16 08:47:14;;;;;;;3.30;1.50;;;;;;;3.75;100.00;100719.34;7373335;19;20794;-39
2023/11/16 08:49:44;;;;;;;15.40;5.73;;;;;;;3.80;100.00;100723.09;7394594;19;20403;-39
2023/11/16 08:52:14;;;;;;;4.53;2.33;;;;;;;3.80;100.00;100718.00;7374776;19;20502;-39
2023/11/16 08:54:44;;;;;;;3.13;1.33;;;;;;;3.82;100.00;100723.19;7395892;19;20507;-39
2023/11/16 08:57:19;;;;;;;33.43;13.00;;;;;;;3.92;100.00;100721.38;7372746;19;20423;-40
2023/11/16 08:59:59;;;;;;;8.30;3.30;;;;;;;3.85;100.00;100723.41;7396095;19;20486;-39
2023/11/16 09:02:29;;;;;;;3.40;1.53;;;;;;;3.82;100.00;100721.53;7372119;19;21326;-40
2023/11/16 09:04:59;;;;;;;24.00;8.50;;;;;;;3.79;100.00;100728.97;7395424;19;20621;-39
2023/11/16 09:07:28;;;;;;;9.90;3.90;;;;;;;3.75;100.00;100732.09;7371816;19;20447;-39
2023/11/16 09:10:01;;;;;;;11.00;4.60;;;;;;;3.82;100.00;100747.06;7395259;19;20435;-43
2023/11/16 09:12:35;;;;;;;2.87;1.20;;;;;;;3.82;100.00;100746.16;7370573;19;20482;-39
2023/11/16 09:15:07;;;;;;;7.33;1.93;;;;;;;3.88;100.00;100739.81;7396418;19;20449;-39
2023/11/16 09:17:36;;;;;;;44.53;14.10;;;;;;;3.88;100.00;100739.81;7374504;19;20454;-40
2023/11/16 09:20:10;;;;;;;2.40;1.10;;;;;;;3.83;100.00;100736.06;7395546;19;20408;-40
2023/11/16 09:22:42;;;;;;;3.70;1.50;;;;;;;3.80;100.00;100753.72;7373870;19;20522;-40
2023/11/16 09:25:15;;;;;;;6.53;2.90;;;;;;;3.85;100.00;100751.50;7373753;19;20862;-39
2023/11/16 09:27:50;;;;;;;2.57;1.17;;;;;;;3.91;100.00;100752.78;7395272;19;20412;-39
2023/11/16 09:30:22;;;;;;;4.10;1.30;;;;;;;3.90;100.00;100751.00;7372345;19;20411;-38
2023/11/16 09:32:52;;;;;;;2.40;1.10;;;;;;;3.83;100.00;100764.13;7394171;19;20951;-39
2023/11/16 09:35:23;;;;;;;4.83;1.80;;;;;;;3.87;100.00;100765.22;7373290;19;20468;-39
2023/11/16 09:37:53;;;;;;;3.70;1.30;;;;;;;3.87;100.00;100760.13;7395650;19;20410;-39
2023/11/16 09:40:28;;;;;;;3.37;1.50;;;;;;;3.91;100.00;100757.88;7372104;19;20470;-41
2023/11/16 09:43:03;;;;;;;23.10;9.63;;;;;;;3.80;100.00;100763.94;7393655;19;20498;-41
2023/11/16 09:45:33;;;;;;;9.10;2.57;;;;;;;3.75;100.00;100760.19;7372901;19;20975;-40
2023/11/16 09:48:06;;;;;;;2.90;0.77;;;;;;;3.84;100.00;100759.94;7392807;19;20951;-40
2023/11/16 09:50:41;;;;;;;2.70;1.00;;;;;;;3.73;100.00;100756.59;7371756;19;20420;-41
2023/11/16 09:53:13;;;;;;;5.00;2.30;;;;;;;3.84;100.00;100753.13;7395704;19;20420;-40
2023/11/16 09:55:46;;;;;;;3.50;0.90;;;;;;;3.77;100.00;100738.19;7372309;19;20423;-39
2023/11/16 09:58:23;;;;;;;5.03;1.30;;;;;;;3.73;100.00;100746.41;7394758;19;20432;-40
2023/11/16 10:00:55;;;;;;;3.07;1.30;;;;;;;3.76;100.00;100746.63;7372168;19;20514;-39
2023/11/16 10:03:30;;;;;;;7.27;2.40;;;;;;;3.84;100.00;100740.38;7394603;19;20982;-39
2023/11/16 10:06:04;;;;;;;4.40;1.43;;;;;;;3.91;100.00;100734.91;7369013;19;20831;-41
2023/11/16 10:08:34;;;;;;;2.20;1.07;;;;;;;3.87;100.00;100744.81;7394202;19;20471;-39
2023/11/16 10:11:05;;;;;;;4.17;1.53;;;;;;;3.91;100.00;100757.00;7371417;19;20808;-40
2023/11/16 10:13:39;;;;;;;3.17;1.20;;;;;;;3.92;100.00;100749.47;7393144;19;20414;-39
2023/11/16 10:16:11;;;;;;;2.50;1.17;;;;;;;3.95;100.00;100742.78;7370491;19;20502;-39
2023/11/16 10:18:41;;;;;;;2.00;0.87;;;;;;;3.87;100.00;100749.91;7393504;19;20411;-40
2023/11/16 10:21:16;;;;;;;2.93;1.27;;;;;;;3.82;100.00;100738.50;7370074;19;20868;-39
2023/11/16 10:23:47;;;;;;;1.80;0.80;;;;;;;3.88;100.00;100751.69;7395114;19;20442;-39
2023/11/16 10:26:17;;;;;;;2.93;1.30;;;;;;;3.91;100.00;100749.34;7371624;19;20426;-39
2023/11/16 10:28:53;;;;;;;9.07;2.30;;;;;;;3.83;100.00;100748.81;7392763;19;20474;-39
2023/11/16 10:31:25;;;;;;;2.00;0.90;;;;;;;3.89;100.00;100753.44;7370241;19;20419;-40
2023/11/16 10:33:57;;;;;;;2.00;0.80;;;;;;;3.88;100.00;100755.13;7392619;19;20399;-40
2023/11/16 10:36:30;;;;;;;2.20;1.00;;;;;;;3.90;100.00;100757.81;7370273;19;20436;-39
2023/11/16 10:39:01;;;;;;;2.10;0.80;;;;;;;3.85;100.00;100765.13;7393371;19;20479;-41
2023/11/16 10:41:32;;;;;;;2.37;0.97;;;;;;;3.92;100.00;100769.00;7371141;19;20419;-41
2023/11/16 10:44:06;;;;;;;2.80;1.00;;;;;;;3.95;100.00;100763.22;7393368;19;20842;-39
2023/11/16 10:46:36;;;;;;;2.20;0.70;;;;;;;3.90;100.00;100775.66;7369861;19;20436;-38
2023/11/16 10:49:07;;;;;;;3.70;1.30;;;;;;;4.02;100.00;100775.63;7388782;19;20411;-40
2023/11/16 10:51:40;;;;;;;2.40;0.90;;;;;;;4.07;100.00;100778.47;7370364;19;20419;-40
2023/11/16 10:54:12;;;;;;;3.00;1.23;;;;;;;3.87;100.00;100771.25;7393554;19;20424;-38
2023/11/16 10:56:43;;;;;;;2.17;0.90;;;;;;;3.92;100.00;100767.34;7368628;19;20958;-39
2023/11/16 10:59:17;;;;;;;2.43;0.93;;;;;;;3.90;100.00;100768.00;7394020;19;20417;-40
2023/11/16 11:01:48;;;;;;;6.67;2.83;;;;;;;3.93;100.00;100775.88;7368332;19;20427;-38
2023/11/16 11:04:18;;;;;;;11.43;4.00;;;;;;;3.97;100.00;100775.31;7392903;19;20440;-38
2023/11/16 11:06:51;;;;;;;6.23;0.77;;;;;;;3.87;100.00;100780.56;7366808;19;20787;-39
2023/11/16 11:09:22;;;;;;;14.30;5.90;;;;;;;3.91;100.00;100785.09;7394171;19;20773;-38
2023/11/16 11:11:54;;;;;;;3.63;1.00;;;;;;;3.94;100.00;100789.53;7367428;19;20498;-40
2023/11/16 11:14:31;;;;;;;2.30;0.77;;;;;;;4.01;100.00;100799.38;7390844;19;20474;-41
2023/11/16 11:17:07;;;;;;;3.30;1.23;;;;;;;4.15;100.00;100793.53;7368078;19;20466;-41
2023/11/16 11:19:37;;;;;;;2.03;0.60;;;;;;;4.15;100.00;100802.91;7391160;19;20935;-40
2023/11/16 11:22:08;;;;;;;1.90;0.60;;;;;;;4.11;100.00;100790.69;7368332;19;20427;-39
2023/11/16 11:24:45;;;;;;;2.50;1.00;;;;;;;4.15;100.00;100803.75;7390619;19;20439;-38
2023/11/16 11:27:15;;;;;;;10.20;1.03;;;;;;;4.11;100.00;100806.88;7343192;19;20418;-42
2023/11/16 11:29:47;;;;;;;6.20;2.50;;;;;;;4.16;100.00;100800.41;7385595;19;20491;-40
2023/11/16 11:32:20;;;;;;;5.83;1.73;;;;;;;4.22;100.00;100793.97;7367621;19;20863;-40
2023/11/16 11:34:51;;;;;;;4.03;1.83;;;;;;;4.22;100.00;100799.06;7392067;19;20720;-38
2023/11/16 11:37:21;;;;;;;6.23;2.40;;;;;;;4.22;100.00;100806.72;7367582;19;20502;-39
2023/11/16 11:39:52;;;;;;;2.70;1.00;;;;;;;4.16;100.00;100800.41;7391451;19;20761;-40
2023/11/16 11:42:24;;;;;;;3.67;1.70;;;;;;;4.40;100.00;100801.97;7368782;19;20427;-42